createdAt,value
2023-05-10T00:00:55.854Z,68.10
2023-05-10T00:02:57.599Z,68.30
2023-05-10T00:04:59.347Z,68.40
2023-05-10T00:07:01.006Z,68.30
2023-05-10T00:09:02.762Z,68.10
2023-05-10T00:11:04.437Z,68.30
2023-05-10T00:13:06.137Z,68.40
2023-05-10T00:15:08.213Z,68.50
2023-05-10T00:17:09.892Z,68.60
2023-05-10T00:19:11.597Z,68.50
2023-05-10T00:21:13.311Z,68.50
2023-05-10T00:23:15.184Z,68.70
2023-05-10T00:25:16.855Z,68.90
2023-05-10T00:27:18.501Z,68.80
2023-05-10T00:29:20.666Z,69.10
2023-05-10T00:31:23.003Z,69.00
2023-05-10T00:33:25.861Z,69.00
2023-05-10T00:35:27.729Z,68.80
2023-05-10T00:37:29.357Z,68.80
2023-05-10T00:39:31.064Z,69.00
2023-05-10T00:41:35.647Z,68.70
2023-05-10T00:43:39.305Z,69.00
2023-05-10T00:45:41.269Z,69.00
2023-05-10T00:47:42.993Z,69.20
2023-05-10T00:49:44.975Z,69.10
2023-05-10T00:51:46.767Z,69.00
2023-05-10T00:53:49.334Z,68.70
2023-05-10T00:55:51.942Z,69.00
2023-05-10T00:57:54.126Z,68.90
2023-05-10T00:59:55.913Z,69.00
2023-05-10T01:01:58.552Z,69.10
2023-05-10T01:04:00.596Z,69.30
2023-05-10T01:06:02.519Z,69.30
2023-05-10T01:08:04.319Z,69.20
2023-05-10T01:10:09.267Z,69.10
2023-05-10T01:12:11.369Z,69.20
2023-05-10T01:14:13.058Z,68.80
2023-05-10T01:16:16.747Z,68.60
2023-05-10T01:18:20.392Z,68.70
2023-05-10T01:20:22.138Z,68.90
2023-05-10T01:22:42.973Z,68.70
2023-05-10T01:24:57.175Z,69.00
2023-05-10T01:27:10.915Z,69.00
2023-05-10T01:29:25.759Z,69.20
2023-05-10T01:31:27.478Z,69.10
2023-05-10T01:33:31.794Z,69.30
2023-05-10T01:35:39.512Z,69.10
2023-05-10T01:37:41.180Z,69.10
2023-05-10T01:39:47.295Z,69.40
2023-05-10T01:41:52.394Z,69.50
2023-05-10T01:44:01.314Z,69.70
2023-05-10T01:46:11.836Z,69.70
2023-05-10T01:48:14.957Z,69.70
2023-05-10T01:50:19.185Z,69.70
2023-05-10T01:52:23.481Z,69.60
2023-05-10T01:54:25.393Z,69.80
2023-05-10T01:56:27.783Z,69.60
2023-05-10T01:58:31.614Z,69.20
2023-05-10T02:00:34.201Z,69.40
2023-05-10T02:02:40.375Z,69.10
2023-05-10T02:04:43.159Z,69.40
2023-05-10T02:06:45.999Z,69.50
2023-05-10T02:08:48.698Z,69.40
2023-05-10T02:10:51.561Z,69.30
2023-05-10T02:12:54.376Z,69.40
2023-05-10T02:14:56.196Z,69.40
2023-05-10T02:16:59.538Z,69.40
2023-05-10T02:19:03.282Z,69.50
2023-05-10T02:21:05.580Z,69.60
2023-05-10T02:23:07.971Z,69.70
2023-05-10T02:25:10.162Z,69.60
2023-05-10T02:27:12.304Z,69.90
2023-05-10T02:29:14.969Z,69.90
2023-05-10T02:31:17.254Z,69.70
2023-05-10T02:33:19.515Z,69.70
2023-05-10T02:35:21.984Z,69.50
2023-05-10T02:37:24.823Z,69.50
2023-05-10T02:39:29.510Z,69.70
2023-05-10T02:41:33.664Z,69.80
2023-05-10T02:43:36.526Z,69.80
2023-05-10T02:45:39.847Z,70.00
2023-05-10T02:47:41.552Z,70.00
2023-05-10T02:49:43.829Z,69.90
2023-05-10T02:51:49.913Z,69.80
2023-05-10T02:53:52.019Z,69.80
2023-05-10T02:55:58.032Z,70.00
2023-05-10T02:58:01.011Z,69.70
2023-05-10T03:00:04.229Z,69.60
2023-05-10T03:02:06.082Z,69.70
2023-05-10T03:04:08.177Z,69.80
2023-05-10T03:06:10.486Z,69.60
2023-05-10T03:08:12.272Z,69.70
2023-05-10T03:10:14.427Z,69.30
2023-05-10T03:12:19.419Z,69.40
2023-05-10T03:14:35.678Z,69.50
2023-05-10T03:16:48.232Z,69.60
2023-05-10T03:18:57.407Z,69.70
2023-05-10T03:21:02.608Z,69.80
2023-05-10T03:23:19.771Z,70.60
2023-05-10T03:25:22.873Z,69.70
2023-05-10T03:27:26.935Z,69.80
2023-05-10T03:29:30.478Z,69.80
2023-05-10T03:31:32.388Z,70.00
2023-05-10T03:33:34.554Z,70.00
2023-05-10T03:35:36.307Z,70.00
2023-05-10T03:37:38.313Z,69.60
2023-05-10T03:39:40.875Z,69.70
2023-05-10T03:41:44.544Z,69.70
2023-05-10T03:43:46.441Z,69.70
2023-05-10T03:45:48.093Z,70.00
2023-05-10T03:47:49.831Z,69.80
2023-05-10T03:49:51.578Z,70.50
2023-05-10T03:51:53.530Z,69.80
2023-05-10T03:53:56.526Z,69.90
2023-05-10T03:55:58.223Z,69.90
2023-05-10T03:57:59.842Z,69.90
2023-05-10T04:00:01.659Z,69.80
2023-05-10T04:02:03.789Z,69.80
2023-05-10T04:04:05.575Z,69.80
2023-05-10T04:06:09.127Z,69.70
2023-05-10T04:08:10.783Z,69.70
2023-05-10T04:10:12.710Z,69.60
2023-05-10T04:12:14.404Z,69.60
2023-05-10T04:14:16.115Z,69.70
2023-05-10T04:16:17.802Z,69.80
2023-05-10T04:18:19.442Z,69.70
2023-05-10T04:20:21.175Z,69.90
2023-05-10T04:22:22.845Z,70.00
2023-05-10T04:24:24.656Z,69.90
2023-05-10T04:26:26.566Z,70.00
2023-05-10T04:28:28.246Z,69.80
2023-05-10T04:30:30.190Z,69.80
2023-05-10T04:32:32.474Z,70.00
2023-05-10T04:34:35.082Z,70.00
2023-05-10T04:36:37.617Z,69.90
2023-05-10T04:38:39.353Z,70.00
2023-05-10T04:40:41.068Z,69.50
2023-05-10T04:42:42.694Z,69.50
2023-05-10T04:44:47.015Z,69.70
2023-05-10T04:46:49.052Z,69.70
2023-05-10T04:48:51.829Z,69.60
2023-05-10T04:50:53.809Z,69.70
2023-05-10T04:52:56.022Z,69.50
2023-05-10T04:54:58.004Z,69.60
2023-05-10T04:56:59.675Z,69.80
2023-05-10T04:59:01.449Z,69.70
2023-05-10T05:01:06.947Z,69.70
2023-05-10T05:03:08.772Z,69.80
2023-05-10T05:05:13.676Z,69.70
2023-05-10T05:07:15.728Z,69.90
2023-05-10T05:09:17.380Z,70.00
2023-05-10T05:11:19.045Z,70.00
2023-05-10T05:13:20.803Z,70.00
2023-05-10T05:15:22.544Z,70.10
2023-05-10T05:17:24.190Z,70.10
2023-05-10T05:19:25.961Z,70.20
2023-05-10T05:21:28.114Z,70.30
2023-05-10T05:23:29.787Z,70.30
2023-05-10T05:25:31.479Z,70.30
2023-05-10T05:27:33.127Z,70.20
2023-05-10T05:29:34.840Z,70.10
2023-05-10T05:31:36.613Z,70.10
2023-05-10T05:33:38.402Z,70.00
2023-05-10T05:35:40.054Z,70.10
2023-05-10T05:37:41.677Z,70.10
2023-05-10T05:39:43.823Z,70.00
2023-05-10T05:41:45.602Z,70.00
2023-05-10T05:43:47.290Z,70.00
2023-05-10T05:45:48.984Z,70.00
2023-05-10T05:47:50.648Z,70.00
2023-05-10T05:49:52.320Z,70.00
2023-05-10T05:51:54.098Z,70.10
2023-05-10T05:53:56.224Z,70.20
2023-05-10T05:55:58.851Z,70.40
2023-05-10T05:58:00.661Z,70.20
2023-05-10T06:00:06.765Z,70.00
2023-05-10T06:02:14.335Z,70.00
2023-05-10T06:04:16.578Z,70.10
2023-05-10T06:06:18.314Z,70.00
2023-05-10T06:08:20.208Z,70.10
2023-05-10T06:10:21.836Z,70.10
2023-05-10T06:12:23.486Z,70.10
2023-05-10T06:14:25.163Z,70.30
2023-05-10T06:16:26.970Z,70.30
2023-05-10T06:18:28.648Z,70.30
2023-05-10T06:20:32.360Z,70.20
2023-05-10T06:22:34.173Z,70.20
2023-05-10T06:24:35.924Z,69.70
2023-05-10T06:26:37.621Z,69.80
2023-05-10T06:28:40.085Z,70.00
2023-05-10T06:30:41.806Z,70.30
2023-05-10T06:32:44.908Z,70.30
2023-05-10T06:34:47.375Z,70.30
2023-05-10T06:36:49.028Z,70.40
2023-05-10T06:38:52.177Z,70.10
2023-05-10T06:40:53.822Z,70.20
2023-05-10T06:42:55.494Z,70.20
2023-05-10T06:44:57.824Z,70.30
2023-05-10T06:46:59.585Z,70.40
2023-05-10T06:49:01.337Z,70.40
2023-05-10T06:51:03.043Z,70.50
2023-05-10T06:53:04.805Z,70.40
2023-05-10T06:55:06.837Z,70.30
2023-05-10T06:57:16.063Z,70.40
2023-05-10T06:59:28.486Z,70.40
2023-05-10T07:01:33.202Z,70.40
2023-05-10T07:03:38.024Z,70.40
2023-05-10T07:05:39.822Z,70.40
2023-05-10T07:07:41.626Z,70.50
2023-05-10T07:09:43.450Z,70.40
2023-05-10T07:11:45.088Z,70.40
2023-05-10T07:13:47.448Z,70.50
2023-05-10T07:15:49.243Z,70.50
2023-05-10T07:17:52.856Z,70.50
2023-05-10T07:19:54.835Z,70.20
2023-05-10T07:21:56.510Z,70.00
2023-05-10T07:23:58.560Z,70.10
2023-05-10T07:26:00.368Z,70.20
2023-05-10T07:28:02.072Z,70.20
2023-05-10T07:30:04.000Z,70.30
2023-05-10T07:32:07.155Z,70.40
2023-05-10T07:34:09.006Z,70.40
2023-05-10T07:36:10.759Z,70.50
2023-05-10T07:38:12.567Z,70.40
2023-05-10T07:40:14.219Z,70.50
2023-05-10T07:42:15.864Z,70.60
2023-05-10T07:44:20.084Z,70.20
2023-05-10T07:46:21.862Z,70.20
2023-05-10T07:48:23.523Z,70.10
2023-05-10T07:50:25.239Z,70.10
2023-05-10T07:52:26.875Z,69.90
2023-05-10T07:54:28.785Z,69.90
2023-05-10T07:56:32.742Z,69.90
2023-05-10T07:58:34.423Z,71.00
2023-05-10T08:00:36.202Z,70.10
2023-05-10T08:02:38.569Z,70.20
2023-05-10T08:04:40.589Z,70.00
2023-05-10T08:06:42.516Z,69.80
2023-05-10T08:08:44.684Z,70.00
2023-05-10T08:10:46.460Z,70.00
2023-05-10T08:12:48.155Z,70.10
2023-05-10T08:14:49.823Z,70.20
2023-05-10T08:16:51.482Z,70.20
2023-05-10T08:18:53.261Z,70.10
2023-05-10T08:20:54.934Z,70.10
2023-05-10T08:22:56.616Z,70.10
2023-05-10T08:24:58.296Z,70.00
2023-05-10T08:27:00.004Z,70.00
2023-05-10T08:29:01.723Z,70.00
2023-05-10T08:31:03.434Z,69.90
2023-05-10T08:33:05.312Z,69.70
2023-05-10T08:35:07.124Z,69.30
2023-05-10T08:37:08.869Z,69.10
2023-05-10T08:39:19.512Z,69.00
2023-05-10T08:41:29.349Z,69.00
2023-05-10T08:43:31.423Z,69.20
2023-05-10T08:45:34.133Z,69.30
2023-05-10T08:47:37.036Z,69.40
2023-05-10T08:49:38.804Z,69.50
2023-05-10T08:51:42.565Z,69.50
2023-05-10T08:53:46.467Z,69.70
2023-05-10T08:55:48.328Z,69.70
2023-05-10T08:57:50.105Z,69.60
2023-05-10T08:59:51.885Z,69.50
2023-05-10T09:01:54.921Z,69.30
2023-05-10T09:03:56.885Z,69.10
2023-05-10T09:05:58.922Z,69.10
2023-05-10T09:08:01.649Z,69.20
2023-05-10T09:10:03.992Z,69.40
2023-05-10T09:12:05.967Z,69.30
2023-05-10T09:14:08.093Z,69.20
2023-05-10T09:16:20.337Z,69.30
2023-05-10T09:18:23.279Z,69.30
2023-05-10T09:20:25.079Z,69.30
2023-05-10T09:22:27.240Z,69.20
2023-05-10T09:24:30.449Z,69.20
2023-05-10T09:26:32.214Z,69.10
2023-05-10T09:28:34.921Z,69.10
2023-05-10T09:30:36.817Z,69.00
2023-05-10T09:32:38.645Z,68.90
2023-05-10T09:34:42.136Z,69.00
2023-05-10T09:36:57.333Z,68.80
2023-05-10T09:38:59.118Z,68.60
2023-05-10T09:41:03.573Z,68.80
2023-05-10T09:43:07.777Z,68.70
2023-05-10T09:45:09.760Z,68.60
2023-05-10T09:47:11.570Z,68.60
2023-05-10T09:49:15.279Z,68.60
2023-05-10T09:51:23.540Z,68.50
2023-05-10T09:53:25.240Z,68.50
2023-05-10T09:55:38.598Z,68.50
2023-05-10T09:57:40.384Z,68.40
2023-05-10T09:59:43.655Z,68.40
2023-05-10T10:01:50.631Z,68.40
2023-05-10T10:03:52.696Z,68.40
2023-05-10T10:05:56.932Z,68.30
2023-05-10T10:08:00.544Z,68.40
2023-05-10T10:10:05.822Z,68.20
2023-05-10T10:12:07.458Z,68.40
2023-05-10T10:14:09.095Z,68.50
2023-05-10T10:16:10.970Z,68.40
2023-05-10T10:18:14.039Z,68.50
2023-05-10T10:20:16.339Z,68.40
2023-05-10T10:22:18.280Z,68.50
2023-05-10T10:24:20.028Z,68.40
2023-05-10T10:26:22.015Z,68.30
2023-05-10T10:28:39.100Z,68.50
2023-05-10T10:30:45.501Z,68.70
2023-05-10T10:32:47.230Z,68.90
2023-05-10T10:34:49.054Z,68.80
2023-05-10T10:36:50.860Z,68.70
2023-05-10T10:38:52.485Z,68.70
2023-05-10T10:41:04.061Z,68.50
2023-05-10T10:43:28.435Z,68.40
2023-05-10T10:45:30.457Z,68.50
2023-05-10T10:47:34.199Z,68.30
2023-05-10T10:49:42.444Z,68.20
2023-05-10T10:52:04.086Z,68.10
2023-05-10T10:54:12.518Z,68.00
2023-05-10T10:56:16.186Z,67.90
2023-05-10T10:58:31.737Z,67.80
2023-05-10T11:00:33.567Z,67.80
2023-05-10T11:02:43.769Z,67.70
2023-05-10T11:04:47.546Z,67.80
2023-05-10T11:06:49.445Z,68.20
2023-05-10T11:08:53.605Z,68.40
2023-05-10T11:11:01.205Z,68.70
2023-05-10T11:13:03.873Z,68.80
2023-05-10T11:15:10.009Z,69.00
2023-05-10T11:17:24.875Z,69.10
2023-05-10T11:19:28.472Z,69.40
2023-05-10T11:21:31.322Z,69.70
2023-05-10T11:23:48.355Z,69.80
2023-05-10T11:25:51.012Z,69.90
2023-05-10T11:27:52.673Z,69.70
2023-05-10T11:29:54.408Z,69.80
2023-05-10T11:31:58.305Z,69.70
2023-05-10T11:34:00.750Z,69.80
2023-05-10T11:36:02.495Z,69.90
2023-05-10T11:38:06.336Z,70.00
2023-05-10T11:40:11.328Z,69.90
2023-05-10T11:42:13.089Z,69.70
2023-05-10T11:44:14.751Z,69.60
2023-05-10T11:46:17.910Z,69.60
2023-05-10T11:48:23.271Z,69.70
2023-05-10T11:50:24.985Z,69.50
2023-05-10T11:52:26.923Z,69.20
2023-05-10T11:54:28.705Z,68.80
2023-05-10T11:56:33.312Z,68.80
2023-05-10T11:58:35.422Z,68.80
2023-05-10T12:00:37.135Z,68.40
2023-05-10T12:02:39.223Z,68.10
2023-05-10T12:04:41.198Z,68.10
2023-05-10T12:06:43.120Z,68.40
2023-05-10T12:08:46.010Z,68.00
2023-05-10T12:10:47.812Z,68.00
2023-05-10T12:12:53.401Z,68.40
2023-05-10T12:14:55.093Z,68.40
2023-05-10T12:16:58.288Z,68.60
2023-05-10T12:19:00.928Z,68.60
2023-05-10T12:21:04.546Z,68.70
2023-05-10T12:23:06.830Z,68.80
2023-05-10T12:25:09.583Z,68.90
2023-05-10T12:27:12.054Z,68.70
2023-05-10T12:29:14.984Z,68.70
2023-05-10T12:31:16.862Z,68.50
2023-05-10T12:33:19.003Z,68.10
2023-05-10T12:35:23.005Z,67.80
2023-05-10T12:37:28.578Z,67.80
2023-05-10T12:39:39.823Z,67.50
2023-05-10T12:41:43.467Z,66.70
2023-05-10T12:43:46.534Z,66.20
2023-05-10T12:45:49.767Z,66.60
2023-05-10T12:47:51.542Z,66.00
2023-05-10T12:49:53.252Z,66.30
2023-05-10T12:51:54.924Z,65.90
2023-05-10T12:53:56.666Z,66.20
2023-05-10T12:55:58.354Z,66.00
2023-05-10T12:58:00.050Z,66.10
2023-05-10T13:00:01.752Z,66.60
2023-05-10T13:02:03.555Z,65.60
2023-05-10T13:04:05.329Z,66.40
2023-05-10T13:06:07.465Z,65.20
2023-05-10T13:08:09.218Z,65.80
2023-05-10T13:10:11.549Z,65.10
2023-05-10T13:12:13.267Z,65.50
2023-05-10T13:14:15.356Z,65.60
2023-05-10T13:16:17.099Z,65.90
2023-05-10T13:18:19.009Z,65.70
2023-05-10T13:20:20.740Z,66.00
2023-05-10T13:22:32.500Z,65.20
2023-05-10T13:24:38.444Z,65.70
2023-05-10T13:26:41.199Z,66.10
2023-05-10T13:28:42.896Z,65.50
2023-05-10T13:30:44.608Z,65.40
2023-05-10T13:32:46.608Z,65.00
2023-05-10T13:34:48.369Z,64.40
2023-05-10T13:36:50.011Z,63.90
2023-05-10T13:38:51.790Z,64.00
2023-05-10T13:40:53.820Z,64.60
2023-05-10T13:42:55.705Z,64.20
2023-05-10T13:44:57.474Z,63.20
2023-05-10T13:46:59.247Z,63.30
2023-05-10T13:49:00.968Z,63.40
2023-05-10T13:51:02.596Z,63.90
2023-05-10T13:53:04.240Z,63.50
2023-05-10T13:55:06.000Z,63.10
2023-05-10T13:57:07.781Z,63.00
2023-05-10T13:59:09.434Z,63.50
2023-05-10T14:01:11.126Z,63.50
2023-05-10T14:03:12.975Z,63.50
2023-05-10T14:05:15.199Z,62.50
2023-05-10T14:07:17.185Z,62.70
2023-05-10T14:09:18.877Z,62.10
2023-05-10T14:11:22.102Z,62.00
2023-05-10T14:13:25.793Z,61.70
2023-05-10T14:15:27.475Z,61.30
2023-05-10T14:17:29.569Z,59.60
2023-05-10T14:19:33.528Z,61.00
2023-05-10T14:21:35.269Z,60.80
2023-05-10T14:23:37.078Z,61.00
2023-05-10T14:25:39.641Z,61.10
2023-05-10T14:27:41.340Z,60.70
2023-05-10T14:29:43.021Z,60.80
2023-05-10T14:31:44.824Z,61.20
2023-05-10T14:33:46.663Z,60.50
2023-05-10T14:35:48.508Z,59.30
2023-05-10T14:37:50.332Z,59.30
2023-05-10T14:39:52.031Z,59.70
2023-05-10T14:41:54.098Z,59.50
2023-05-10T14:43:56.256Z,59.30
2023-05-10T14:45:58.014Z,59.50
2023-05-10T14:48:00.249Z,58.70
2023-05-10T14:50:02.290Z,58.70
2023-05-10T14:52:04.135Z,59.70
2023-05-10T14:54:06.031Z,59.30
2023-05-10T14:56:08.036Z,59.90
2023-05-10T14:58:09.702Z,58.50
2023-05-10T15:00:12.336Z,58.90
2023-05-10T15:02:14.567Z,59.20
2023-05-10T15:04:17.795Z,59.40
2023-05-10T15:06:23.955Z,59.20
2023-05-10T15:08:25.767Z,59.40
2023-05-10T15:10:27.453Z,59.80
2023-05-10T15:12:29.138Z,60.60
2023-05-10T15:14:31.386Z,59.90
2023-05-10T15:16:35.811Z,59.70
2023-05-10T15:18:38.041Z,59.50
2023-05-10T15:20:39.740Z,59.30
2023-05-10T15:22:42.223Z,59.40
2023-05-10T15:24:43.889Z,59.60
2023-05-10T15:26:45.743Z,59.20
2023-05-10T15:28:47.487Z,58.70
2023-05-10T15:30:49.246Z,58.30
2023-05-10T15:32:51.057Z,58.00
2023-05-10T15:34:52.866Z,58.60
2023-05-10T15:36:54.537Z,59.30
2023-05-10T15:38:56.845Z,58.70
2023-05-10T15:40:59.057Z,58.40
2023-05-10T15:43:00.750Z,58.60
2023-05-10T15:45:02.438Z,57.90
2023-05-10T15:47:04.310Z,58.10
2023-05-10T15:49:06.778Z,58.10
2023-05-10T15:51:08.643Z,58.70
2023-05-10T15:53:10.420Z,56.90
2023-05-10T15:55:15.587Z,57.70
2023-05-10T15:57:17.499Z,58.00
2023-05-10T15:59:19.265Z,58.10
2023-05-10T16:01:21.264Z,58.60
2023-05-10T16:03:23.411Z,58.60
2023-05-10T16:05:27.395Z,58.40
2023-05-10T16:07:29.030Z,58.80
2023-05-10T16:09:32.433Z,58.70
2023-05-10T16:11:34.218Z,58.40
2023-05-10T16:13:35.973Z,59.00
2023-05-10T16:15:37.766Z,59.00
2023-05-10T16:17:39.490Z,58.70
2023-05-10T16:19:41.330Z,58.90
2023-05-10T16:21:43.028Z,59.10
2023-05-10T16:23:46.468Z,59.10
2023-05-10T16:25:48.221Z,58.30
2023-05-10T16:27:50.955Z,58.40
2023-05-10T16:29:52.681Z,58.20
2023-05-10T16:31:54.470Z,58.70
2023-05-10T16:33:56.129Z,58.50
2023-05-10T16:35:57.787Z,58.00
2023-05-10T16:37:59.561Z,58.00
2023-05-10T16:40:01.346Z,58.20
2023-05-10T16:42:03.213Z,58.30
2023-05-10T16:44:04.923Z,58.00
2023-05-10T16:46:10.166Z,58.30
2023-05-10T16:48:12.009Z,58.00
2023-05-10T16:50:14.892Z,57.70
2023-05-10T16:52:16.573Z,57.90
2023-05-10T16:54:18.575Z,58.20
2023-05-10T16:56:22.221Z,57.80
2023-05-10T16:58:24.033Z,57.70
2023-05-10T17:00:26.246Z,57.90
2023-05-10T17:02:28.034Z,57.50
2023-05-10T17:04:29.820Z,57.50
2023-05-10T17:06:31.481Z,57.50
2023-05-10T17:08:33.491Z,57.20
2023-05-10T17:10:36.120Z,57.70
2023-05-10T17:12:38.018Z,57.90
2023-05-10T17:14:40.137Z,58.00
2023-05-10T17:16:41.943Z,58.40
2023-05-10T17:18:45.732Z,58.70
2023-05-10T17:20:47.616Z,58.40
2023-05-10T17:22:49.316Z,58.60
2023-05-10T17:24:51.121Z,58.80
2023-05-10T17:26:53.617Z,59.00
2023-05-10T17:28:55.364Z,59.00
2023-05-10T17:30:57.749Z,59.20
2023-05-10T17:33:00.518Z,59.40
2023-05-10T17:35:03.664Z,59.40
2023-05-10T17:37:05.436Z,59.40
2023-05-10T17:39:07.107Z,59.40
2023-05-10T17:41:08.873Z,59.40
2023-05-10T17:43:10.933Z,59.30
2023-05-10T17:45:12.687Z,59.50
2023-05-10T17:47:14.446Z,59.40
2023-05-10T17:49:16.239Z,59.50
2023-05-10T17:51:18.638Z,59.60
2023-05-10T17:53:20.430Z,59.70
2023-05-10T17:55:22.184Z,59.80
2023-05-10T17:57:24.692Z,59.80
2023-05-10T17:59:26.470Z,59.70
2023-05-10T18:01:28.240Z,59.90
2023-05-10T18:03:30.253Z,59.90
2023-05-10T18:05:35.394Z,59.90
2023-05-10T18:07:37.180Z,59.90
2023-05-10T18:09:38.867Z,60.00
2023-05-10T18:11:40.613Z,60.00
2023-05-10T18:13:42.500Z,60.00
2023-05-10T18:15:44.502Z,59.80
2023-05-10T18:17:46.344Z,60.00
2023-05-10T18:19:48.206Z,60.10
2023-05-10T18:21:49.979Z,60.20
2023-05-10T18:23:51.657Z,60.10
2023-05-10T18:25:53.449Z,60.10
2023-05-10T18:27:55.162Z,60.10
2023-05-10T18:29:57.004Z,60.30
2023-05-10T18:31:58.716Z,60.20
2023-05-10T18:34:00.478Z,60.40
2023-05-10T18:36:02.390Z,60.50
2023-05-10T18:38:06.250Z,60.60
2023-05-10T18:40:11.015Z,60.70
2023-05-10T18:42:12.744Z,60.80
2023-05-10T18:44:14.590Z,60.80
2023-05-10T18:46:16.428Z,60.90
2023-05-10T18:48:18.247Z,60.90
2023-05-10T18:50:20.071Z,60.90
2023-05-10T18:52:21.853Z,61.10
2023-05-10T18:54:23.675Z,61.00
2023-05-10T18:56:25.449Z,61.10
2023-05-10T18:58:28.102Z,61.00
2023-05-10T19:00:29.874Z,61.20
2023-05-10T19:02:31.594Z,61.20
2023-05-10T19:04:33.531Z,61.30
2023-05-10T19:06:35.918Z,61.30
2023-05-10T19:08:37.737Z,61.20
2023-05-10T19:10:39.556Z,61.20
2023-05-10T19:12:41.746Z,61.10
2023-05-10T19:14:43.514Z,61.30
2023-05-10T19:16:45.524Z,61.40
2023-05-10T19:18:47.365Z,61.50
2023-05-10T19:20:49.355Z,61.50
2023-05-10T19:23:08.367Z,61.50
2023-05-10T19:25:13.118Z,61.50
2023-05-10T19:27:16.184Z,61.50
2023-05-10T19:29:18.058Z,61.50
2023-05-10T19:31:20.567Z,61.50
2023-05-10T19:33:22.411Z,61.70
2023-05-10T19:35:24.253Z,61.60
2023-05-10T19:37:27.460Z,61.70
2023-05-10T19:39:30.836Z,61.80
2023-05-10T19:41:32.931Z,61.90
2023-05-10T19:43:35.076Z,62.00
2023-05-10T19:45:38.901Z,62.20
2023-05-10T19:47:42.081Z,62.30
2023-05-10T19:49:44.031Z,62.10
2023-05-10T19:51:45.884Z,62.20
2023-05-10T19:53:47.612Z,62.20
2023-05-10T19:55:49.392Z,62.30
2023-05-10T19:57:51.135Z,62.20
2023-05-10T19:59:53.005Z,62.30
2023-05-10T20:01:54.891Z,62.30
2023-05-10T20:03:57.032Z,62.40
2023-05-10T20:05:58.884Z,62.60
2023-05-10T20:08:00.685Z,63.50
2023-05-10T20:10:02.942Z,62.60
2023-05-10T20:12:04.827Z,62.70
2023-05-10T20:14:06.973Z,62.80
2023-05-10T20:16:08.819Z,63.10
2023-05-10T20:18:10.764Z,63.00
2023-05-10T20:20:13.764Z,63.00
2023-05-10T20:22:15.479Z,63.20
2023-05-10T20:24:17.335Z,63.50
2023-05-10T20:26:19.087Z,63.40
2023-05-10T20:28:23.129Z,63.40
2023-05-10T20:30:24.930Z,63.40
2023-05-10T20:32:30.924Z,63.50
2023-05-10T20:34:35.168Z,63.60
2023-05-10T20:36:37.000Z,63.60
2023-05-10T20:38:39.269Z,64.40
2023-05-10T20:40:41.550Z,63.70
2023-05-10T20:42:43.384Z,63.60
2023-05-10T20:44:45.189Z,63.50
2023-05-10T20:46:47.235Z,63.50
2023-05-10T20:48:49.455Z,63.50
2023-05-10T20:50:51.841Z,63.50
2023-05-10T20:52:53.586Z,63.60
2023-05-10T20:54:55.548Z,63.60
2023-05-10T20:56:57.386Z,63.50
2023-05-10T20:58:59.212Z,63.70
2023-05-10T21:01:01.297Z,63.80
2023-05-10T21:03:03.126Z,64.00
2023-05-10T21:05:05.239Z,64.10
2023-05-10T21:07:07.055Z,64.20
2023-05-10T21:09:08.711Z,64.10
2023-05-10T21:11:10.419Z,64.20
2023-05-10T21:13:12.213Z,64.20
2023-05-10T21:15:14.010Z,64.30
2023-05-10T21:17:16.562Z,64.30
2023-05-10T21:19:19.809Z,64.30
2023-05-10T21:21:21.482Z,64.20
2023-05-10T21:23:23.198Z,64.50
2023-05-10T21:25:25.388Z,64.30
2023-05-10T21:27:27.198Z,64.60
2023-05-10T21:29:28.841Z,64.40
2023-05-10T21:31:31.750Z,64.50
2023-05-10T21:33:33.603Z,64.70
2023-05-10T21:35:35.535Z,64.70
2023-05-10T21:37:37.201Z,64.70
2023-05-10T21:39:38.914Z,64.70
2023-05-10T21:41:40.671Z,64.70
2023-05-10T21:43:42.777Z,64.60
2023-05-10T21:45:44.441Z,64.70
2023-05-10T21:47:46.147Z,64.40
2023-05-10T21:49:48.042Z,64.30
2023-05-10T21:51:49.706Z,64.50
2023-05-10T21:53:51.289Z,64.70
2023-05-10T21:55:55.137Z,64.60
2023-05-10T21:57:58.348Z,64.70
2023-05-10T22:00:00.027Z,64.80
2023-05-10T22:02:01.698Z,64.90
2023-05-10T22:04:03.434Z,64.70
2023-05-10T22:06:05.169Z,64.90
2023-05-10T22:08:06.981Z,65.00
2023-05-10T22:10:09.261Z,65.10
2023-05-10T22:12:12.861Z,65.00
2023-05-10T22:14:14.619Z,64.90
2023-05-10T22:16:16.394Z,65.00
2023-05-10T22:18:18.106Z,65.00
2023-05-10T22:20:20.955Z,65.20
2023-05-10T22:22:22.745Z,65.20
2023-05-10T22:24:24.399Z,65.10
2023-05-10T22:26:26.142Z,65.00
2023-05-10T22:28:28.267Z,65.10
2023-05-10T22:30:32.147Z,65.10
2023-05-10T22:32:34.703Z,65.20
2023-05-10T22:34:36.580Z,65.20
2023-05-10T22:36:38.221Z,65.10
2023-05-10T22:38:39.859Z,65.20
2023-05-10T22:40:41.913Z,65.20
2023-05-10T22:42:43.587Z,65.20
2023-05-10T22:44:45.276Z,65.20
2023-05-10T22:46:47.044Z,65.10
2023-05-10T22:48:48.721Z,65.20
2023-05-10T22:50:50.383Z,65.20
2023-05-10T22:52:52.129Z,65.20
2023-05-10T22:54:53.856Z,65.30
2023-05-10T22:56:56.106Z,65.20
2023-05-10T22:58:57.779Z,65.40
2023-05-10T23:00:59.431Z,65.40
2023-05-10T23:03:01.045Z,65.50
2023-05-10T23:05:02.898Z,65.50
2023-05-10T23:07:04.770Z,65.40
2023-05-10T23:09:06.481Z,65.40
2023-05-10T23:11:08.112Z,65.60
2023-05-10T23:13:09.737Z,65.60
2023-05-10T23:15:11.529Z,65.60
2023-05-10T23:17:13.571Z,65.60
2023-05-10T23:19:15.305Z,65.60
2023-05-10T23:21:17.566Z,65.30
2023-05-10T23:23:19.208Z,65.60
2023-05-10T23:25:20.920Z,65.50
2023-05-10T23:27:22.687Z,65.80
2023-05-10T23:29:26.158Z,65.80
2023-05-10T23:31:27.844Z,65.90
2023-05-10T23:33:29.576Z,65.60
2023-05-10T23:35:31.274Z,65.80
2023-05-10T23:37:32.890Z,65.70
2023-05-10T23:39:34.781Z,65.60
2023-05-10T23:41:36.434Z,65.80
2023-05-10T23:43:38.157Z,65.80
2023-05-10T23:45:39.851Z,66.00
2023-05-10T23:47:41.868Z,65.90
2023-05-10T23:49:43.552Z,65.80
2023-05-10T23:51:45.210Z,65.80
2023-05-10T23:53:46.888Z,65.80
2023-05-10T23:55:48.632Z,65.80
2023-05-10T23:57:50.311Z,66.00
2023-05-10T23:59:51.905Z,66.00
